createdAt,value
2023-12-28T00:00:19.581Z,1005.43
2023-12-28T00:01:19.597Z,1005.40
2023-12-28T00:02:19.605Z,1005.40
2023-12-28T00:03:19.665Z,1005.37
2023-12-28T00:04:19.626Z,1005.34
2023-12-28T00:05:19.558Z,1005.31
2023-12-28T00:06:19.581Z,1005.31
2023-12-28T00:07:19.507Z,1005.30
2023-12-28T00:08:19.476Z,1005.30
2023-12-28T00:09:19.595Z,1005.30
2023-12-28T00:10:19.493Z,1005.29
2023-12-28T00:11:19.491Z,1005.28
2023-12-28T00:12:19.537Z,1005.29
2023-12-28T00:13:19.445Z,1005.28
2023-12-28T00:14:19.425Z,1005.30
2023-12-28T00:15:19.572Z,1005.28
2023-12-28T00:16:19.415Z,1005.30
2023-12-28T00:17:19.440Z,1005.29
2023-12-28T00:18:22.424Z,1005.26
2023-12-28T00:19:19.456Z,1005.24
2023-12-28T00:20:19.389Z,1005.23
2023-12-28T00:21:19.437Z,1005.24
2023-12-28T00:22:19.382Z,1005.21
2023-12-28T00:23:19.367Z,1005.19
2023-12-28T00:24:19.407Z,1005.19
2023-12-28T00:25:19.343Z,1005.22
2023-12-28T00:26:19.330Z,1005.23
2023-12-28T00:27:19.430Z,1005.23
2023-12-28T00:28:19.330Z,1005.25
2023-12-28T00:29:19.314Z,1005.23
2023-12-28T00:30:19.414Z,1005.23
2023-12-28T00:31:19.361Z,1005.19
2023-12-28T00:32:19.269Z,1005.16
2023-12-28T00:33:19.398Z,1005.14
2023-12-28T00:34:19.308Z,1005.10
2023-12-28T00:35:19.252Z,1005.09
2023-12-28T00:36:19.280Z,1005.08
2023-12-28T00:37:19.227Z,1005.07
2023-12-28T00:38:19.188Z,1005.06
2023-12-28T00:39:19.255Z,1005.04
2023-12-28T00:40:19.210Z,1005.03
2023-12-28T00:41:19.186Z,1005.04
2023-12-28T00:42:19.206Z,1005.04
2023-12-28T00:43:19.199Z,1005.06
2023-12-28T00:44:19.170Z,1005.06
2023-12-28T00:45:19.252Z,1005.02
2023-12-28T00:46:19.130Z,1005.02
2023-12-28T00:47:19.169Z,1004.98
2023-12-28T00:48:19.213Z,1004.98
2023-12-28T00:49:19.344Z,1004.98
2023-12-28T00:50:19.105Z,1004.97
2023-12-28T00:51:19.193Z,1004.97
2023-12-28T00:52:19.107Z,1004.95
2023-12-28T00:53:19.099Z,1004.94
2023-12-28T00:54:19.109Z,1004.94
2023-12-28T00:55:19.071Z,1004.88
2023-12-28T00:56:19.078Z,1004.86
2023-12-28T00:57:19.088Z,1004.87
2023-12-28T00:58:19.024Z,1004.86
2023-12-28T00:59:19.038Z,1004.89
2023-12-28T01:00:19.092Z,1004.88
2023-12-28T01:01:19.162Z,1004.87
2023-12-28T01:02:19.003Z,1004.84
2023-12-28T01:03:19.192Z,1004.81
2023-12-28T01:04:19.117Z,1004.75
2023-12-28T01:05:18.968Z,1004.78
2023-12-28T01:06:19.180Z,1004.78
2023-12-28T01:07:18.983Z,1004.74
2023-12-28T01:08:19.094Z,1004.76
2023-12-28T01:09:19.027Z,1004.73
2023-12-28T01:10:18.925Z,1004.75
2023-12-28T01:12:18.948Z,1004.63
2023-12-28T01:13:18.919Z,1004.66
2023-12-28T01:14:18.899Z,1004.58
2023-12-28T01:15:19.447Z,1004.61
2023-12-28T01:16:18.894Z,1004.58
2023-12-28T01:17:18.870Z,1004.53
2023-12-28T01:18:18.968Z,1004.49
2023-12-28T01:19:18.987Z,1004.45
2023-12-28T01:20:18.867Z,1004.39
2023-12-28T01:21:18.976Z,1004.39
2023-12-28T01:22:18.822Z,1004.46
2023-12-28T01:23:18.807Z,1004.54
2023-12-28T01:24:18.832Z,1004.58
2023-12-28T01:25:18.804Z,1004.59
2023-12-28T01:26:18.807Z,1004.54
2023-12-28T01:27:18.993Z,1004.53
2023-12-28T01:28:18.769Z,1004.46
2023-12-28T01:29:18.815Z,1004.41
2023-12-28T01:30:18.930Z,1004.39
2023-12-28T01:31:18.839Z,1004.37
2023-12-28T01:32:18.747Z,1004.34
2023-12-28T01:33:18.897Z,1004.35
2023-12-28T01:34:18.862Z,1004.37
2023-12-28T01:35:18.739Z,1004.37
2023-12-28T01:36:18.731Z,1004.38
2023-12-28T01:37:18.716Z,1004.31
2023-12-28T01:38:18.682Z,1004.33
2023-12-28T01:39:18.798Z,1004.31
2023-12-28T01:40:18.651Z,1004.31
2023-12-28T01:41:18.642Z,1004.30
2023-12-28T01:42:18.657Z,1004.31
2023-12-28T01:43:18.647Z,1004.31
2023-12-28T01:44:18.645Z,1004.33
2023-12-28T01:45:18.732Z,1004.31
2023-12-28T01:46:18.589Z,1004.29
2023-12-28T01:47:18.573Z,1004.29
2023-12-28T01:48:18.715Z,1004.27
2023-12-28T01:49:18.648Z,1004.27
2023-12-28T01:50:18.572Z,1004.29
2023-12-28T01:51:18.669Z,1004.28
2023-12-28T01:52:18.554Z,1004.26
2023-12-28T01:53:18.568Z,1004.27
2023-12-28T01:54:18.555Z,1004.24
2023-12-28T01:55:18.520Z,1004.22
2023-12-28T01:56:18.526Z,1004.21
2023-12-28T01:57:18.626Z,1004.18
2023-12-28T01:58:18.510Z,1004.20
2023-12-28T01:59:18.539Z,1004.17
2023-12-28T02:00:18.522Z,1004.16
2023-12-28T02:01:18.621Z,1004.15
2023-12-28T02:02:18.454Z,1004.16
2023-12-28T02:03:18.548Z,1004.14
2023-12-28T02:04:18.539Z,1004.13
2023-12-28T02:05:18.472Z,1004.09
2023-12-28T02:06:18.650Z,1004.04
2023-12-28T02:07:18.446Z,1004.01
2023-12-28T02:08:18.426Z,1004.00
2023-12-28T02:09:18.468Z,1003.97
2023-12-28T02:10:18.398Z,1003.97
2023-12-28T02:11:18.383Z,1003.98
2023-12-28T02:12:18.406Z,1004.03
2023-12-28T02:13:18.368Z,1004.05
2023-12-28T02:14:18.378Z,1004.07
2023-12-28T02:15:18.478Z,1004.05
2023-12-28T02:16:18.322Z,1004.08
2023-12-28T02:17:18.338Z,1004.09
2023-12-28T02:18:18.362Z,1004.11
2023-12-28T02:19:18.337Z,1004.13
2023-12-28T02:20:18.289Z,1004.12
2023-12-28T02:21:18.364Z,1004.13
2023-12-28T02:22:18.296Z,1004.14
2023-12-28T02:23:18.245Z,1004.16
2023-12-28T02:24:18.273Z,1004.15
2023-12-28T02:25:18.287Z,1004.11
2023-12-28T02:26:18.324Z,1004.11
2023-12-28T02:27:18.302Z,1004.13
2023-12-28T02:28:18.243Z,1004.12
2023-12-28T02:29:18.234Z,1004.16
2023-12-28T02:30:18.343Z,1004.14
2023-12-28T02:31:18.276Z,1004.13
2023-12-28T02:32:18.199Z,1004.11
2023-12-28T02:33:18.355Z,1004.10
2023-12-28T02:34:18.298Z,1004.11
2023-12-28T02:35:18.170Z,1004.11
2023-12-28T02:36:18.220Z,1004.08
2023-12-28T02:37:18.127Z,1004.05
2023-12-28T02:38:18.144Z,1004.04
2023-12-28T02:39:18.241Z,1004.01
2023-12-28T02:40:18.140Z,1004.02
2023-12-28T02:41:18.137Z,1004.02
2023-12-28T02:42:18.126Z,1004.04
2023-12-28T02:43:18.103Z,1004.06
2023-12-28T02:44:18.063Z,1004.04
2023-12-28T02:45:18.179Z,1004.01
2023-12-28T02:46:18.140Z,1003.98
2023-12-28T02:47:18.057Z,1003.96
2023-12-28T02:48:18.184Z,1003.94
2023-12-28T02:49:18.157Z,1003.86
2023-12-28T02:50:18.033Z,1003.81
2023-12-28T02:51:18.108Z,1003.77
2023-12-28T02:52:17.997Z,1003.78
2023-12-28T02:53:18.014Z,1003.77
2023-12-28T02:54:18.038Z,1003.79
2023-12-28T02:55:18.009Z,1003.77
2023-12-28T02:56:17.946Z,1003.79
2023-12-28T02:57:18.050Z,1003.78
2023-12-28T02:58:17.996Z,1003.77
2023-12-28T02:59:17.958Z,1003.77
2023-12-28T03:00:17.995Z,1003.80
2023-12-28T03:01:18.106Z,1003.80
2023-12-28T03:02:17.944Z,1003.83
2023-12-28T03:03:18.070Z,1003.84
2023-12-28T03:04:17.948Z,1003.86
2023-12-28T03:05:17.988Z,1003.85
2023-12-28T03:06:17.905Z,1003.84
2023-12-28T03:07:17.898Z,1003.85
2023-12-28T03:08:17.882Z,1003.90
2023-12-28T03:09:18.056Z,1003.90
2023-12-28T03:10:17.855Z,1003.90
2023-12-28T03:11:17.830Z,1003.89
2023-12-28T03:12:17.916Z,1003.89
2023-12-28T03:13:17.849Z,1003.89
2023-12-28T03:14:17.823Z,1003.90
2023-12-28T03:15:17.942Z,1003.94
2023-12-28T03:16:17.805Z,1003.98
2023-12-28T03:17:17.790Z,1003.98
2023-12-28T03:18:17.931Z,1004.00
2023-12-28T03:19:17.894Z,1004.00
2023-12-28T03:20:17.719Z,1003.97
2023-12-28T03:21:17.811Z,1003.93
2023-12-28T03:22:17.732Z,1003.93
2023-12-28T03:23:17.723Z,1003.95
2023-12-28T03:24:17.743Z,1003.94
2023-12-28T03:25:17.696Z,1003.97
2023-12-28T03:26:17.699Z,1004.03
2023-12-28T03:27:17.768Z,1004.00
2023-12-28T03:28:17.663Z,1003.97
2023-12-28T03:29:17.658Z,1003.99
2023-12-28T03:30:17.757Z,1003.99
2023-12-28T03:31:17.702Z,1004.05
2023-12-28T03:32:17.640Z,1004.08
2023-12-28T03:33:17.733Z,1004.10
2023-12-28T03:34:17.693Z,1004.08
2023-12-28T03:35:17.601Z,1004.04
2023-12-28T03:36:17.611Z,1004.02
2023-12-28T03:37:17.580Z,1004.01
2023-12-28T03:38:17.567Z,1004.01
2023-12-28T03:39:17.671Z,1003.99
2023-12-28T03:40:20.390Z,1003.98
2023-12-28T03:41:17.591Z,1004.00
2023-12-28T03:42:17.586Z,1004.03
2023-12-28T03:43:17.533Z,1004.01
2023-12-28T03:44:17.553Z,1004.00
2023-12-28T03:45:17.627Z,1003.96
2023-12-28T03:46:17.497Z,1003.94
2023-12-28T03:47:17.496Z,1003.94
2023-12-28T03:48:17.921Z,1003.93
2023-12-28T03:49:17.540Z,1003.96
2023-12-28T03:50:17.479Z,1003.97
2023-12-28T03:51:17.825Z,1003.96
2023-12-28T03:52:17.507Z,1003.97
2023-12-28T03:53:17.404Z,1004.01
2023-12-28T03:54:17.510Z,1004.02
2023-12-28T03:55:17.459Z,1004.05
2023-12-28T03:56:17.430Z,1004.11
2023-12-28T03:57:17.514Z,1004.13
2023-12-28T03:58:17.472Z,1004.14
2023-12-28T03:59:17.433Z,1004.12
2023-12-28T04:00:17.404Z,1004.11
2023-12-28T04:01:17.520Z,1004.11
2023-12-28T04:02:17.418Z,1004.08
2023-12-28T04:03:17.655Z,1004.07
2023-12-28T04:04:17.464Z,1003.95
2023-12-28T04:05:17.407Z,1003.98
2023-12-28T04:06:17.443Z,1003.96
2023-12-28T04:07:17.346Z,1003.99
2023-12-28T04:08:17.349Z,1004.00
2023-12-28T04:09:17.434Z,1004.00
2023-12-28T04:10:17.272Z,1004.08
2023-12-28T04:11:17.301Z,1004.14
2023-12-28T04:12:17.300Z,1004.18
2023-12-28T04:13:17.246Z,1004.20
2023-12-28T04:14:17.235Z,1004.16
2023-12-28T04:15:17.359Z,1004.09
2023-12-28T04:16:17.245Z,1004.06
2023-12-28T04:17:17.212Z,1004.09
2023-12-28T04:18:17.474Z,1004.09
2023-12-28T04:19:19.820Z,1004.07
2023-12-28T04:20:17.198Z,1004.11
2023-12-28T04:21:17.250Z,1004.16
2023-12-28T04:22:17.178Z,1004.13
2023-12-28T04:23:17.175Z,1004.10
2023-12-28T04:24:17.248Z,1004.08
2023-12-28T04:25:17.171Z,1004.04
2023-12-28T04:26:17.201Z,1004.09
2023-12-28T04:27:17.222Z,1004.13
2023-12-28T04:28:17.149Z,1004.14
2023-12-28T04:29:17.145Z,1004.16
2023-12-28T04:30:17.236Z,1004.17
2023-12-28T04:31:17.267Z,1004.14
2023-12-28T04:32:17.106Z,1004.13
2023-12-28T04:33:17.181Z,1004.09
2023-12-28T04:34:17.088Z,1004.07
2023-12-28T04:35:17.094Z,1004.06
2023-12-28T04:36:17.106Z,1004.09
2023-12-28T04:37:17.044Z,1004.19
2023-12-28T04:38:17.016Z,1004.21
2023-12-28T04:39:17.112Z,1004.21
2023-12-28T04:40:17.025Z,1004.20
2023-12-28T04:41:17.002Z,1004.16
2023-12-28T04:42:17.033Z,1004.19
2023-12-28T04:43:17.029Z,1004.23
2023-12-28T04:44:17.002Z,1004.19
2023-12-28T04:45:17.138Z,1004.20
2023-12-28T04:46:16.964Z,1004.20
2023-12-28T04:47:16.968Z,1004.24
2023-12-28T04:48:17.067Z,1004.24
2023-12-28T04:49:17.090Z,1004.23
2023-12-28T04:50:16.936Z,1004.20
2023-12-28T04:51:16.980Z,1004.23
2023-12-28T04:52:16.899Z,1004.24
2023-12-28T04:53:16.874Z,1004.31
2023-12-28T04:54:16.904Z,1004.30
2023-12-28T04:55:16.854Z,1004.33
2023-12-28T04:56:16.860Z,1004.28
2023-12-28T04:57:16.943Z,1004.29
2023-12-28T04:58:16.865Z,1004.30
2023-12-28T04:59:16.867Z,1004.32
2023-12-28T05:00:16.943Z,1004.33
2023-12-28T05:01:16.962Z,1004.34
2023-12-28T05:02:16.824Z,1004.44
2023-12-28T05:03:16.966Z,1004.43
2023-12-28T05:04:18.033Z,1004.46
2023-12-28T05:05:16.808Z,1004.39
2023-12-28T05:06:16.770Z,1004.41
2023-12-28T05:07:16.739Z,1004.44
2023-12-28T05:08:16.775Z,1004.48
2023-12-28T05:09:16.862Z,1004.45
2023-12-28T05:10:16.757Z,1004.55
2023-12-28T05:11:16.732Z,1004.62
2023-12-28T05:12:16.724Z,1004.63
2023-12-28T05:13:16.763Z,1004.65
2023-12-28T05:14:16.726Z,1004.71
2023-12-28T05:15:16.846Z,1004.67
2023-12-28T05:16:16.701Z,1004.63
2023-12-28T05:17:16.678Z,1004.57
2023-12-28T05:18:16.807Z,1004.48
2023-12-28T05:19:16.688Z,1004.46
2023-12-28T05:20:16.674Z,1004.44
2023-12-28T05:21:16.677Z,1004.45
2023-12-28T05:22:16.619Z,1004.49
2023-12-28T05:23:16.627Z,1004.51
2023-12-28T05:24:16.656Z,1004.53
2023-12-28T05:25:16.573Z,1004.60
2023-12-28T05:26:16.638Z,1004.58
2023-12-28T05:27:16.678Z,1004.59
2023-12-28T05:28:16.555Z,1004.62
2023-12-28T05:29:16.550Z,1004.64
2023-12-28T05:30:16.771Z,1004.67
2023-12-28T05:31:16.580Z,1004.67
2023-12-28T05:32:16.558Z,1004.71
2023-12-28T05:33:16.687Z,1004.82
2023-12-28T05:34:16.557Z,1004.85
2023-12-28T05:35:16.514Z,1004.85
2023-12-28T05:36:16.546Z,1004.84
2023-12-28T05:37:16.461Z,1004.85
2023-12-28T05:38:16.444Z,1004.81
2023-12-28T05:39:16.601Z,1004.79
2023-12-28T05:40:16.455Z,1004.71
2023-12-28T05:41:16.454Z,1004.73
2023-12-28T05:42:16.440Z,1004.81
2023-12-28T05:43:16.444Z,1004.82
2023-12-28T05:44:16.424Z,1004.85
2023-12-28T05:45:16.514Z,1004.86
2023-12-28T05:46:16.496Z,1004.77
2023-12-28T05:47:16.414Z,1004.70
2023-12-28T05:48:16.600Z,1004.60
2023-12-28T05:49:16.452Z,1004.63
2023-12-28T05:50:16.373Z,1004.62
2023-12-28T05:51:16.494Z,1004.66
2023-12-28T05:52:16.481Z,1004.69
2023-12-28T05:53:16.322Z,1004.75
2023-12-28T05:54:16.370Z,1004.86
2023-12-28T05:55:16.337Z,1004.90
2023-12-28T05:56:16.343Z,1004.86
2023-12-28T05:57:16.474Z,1004.80
2023-12-28T05:58:16.293Z,1004.87
2023-12-28T05:59:18.169Z,1004.92
2023-12-28T06:00:16.302Z,1004.91
2023-12-28T06:01:16.384Z,1005.01
2023-12-28T06:02:16.253Z,1005.09
2023-12-28T06:03:16.332Z,1005.11
2023-12-28T06:04:16.262Z,1005.12
2023-12-28T06:05:16.345Z,1005.08
2023-12-28T06:06:16.259Z,1005.09
2023-12-28T06:07:16.213Z,1005.13
2023-12-28T06:08:16.188Z,1005.16
2023-12-28T06:09:16.224Z,1005.19
2023-12-28T06:10:16.199Z,1005.16
2023-12-28T06:11:16.189Z,1005.13
2023-12-28T06:12:16.199Z,1005.10
2023-12-28T06:13:16.174Z,1005.07
2023-12-28T06:14:16.139Z,1005.04
2023-12-28T06:15:16.256Z,1004.98
2023-12-28T06:16:16.156Z,1004.82
2023-12-28T06:17:16.112Z,1004.92
2023-12-28T06:18:16.250Z,1004.92
2023-12-28T06:19:16.180Z,1004.89
2023-12-28T06:20:16.134Z,1004.99
2023-12-28T06:21:16.167Z,1005.08
2023-12-28T06:22:16.056Z,1005.15
2023-12-28T06:23:16.051Z,1005.14
2023-12-28T06:24:16.057Z,1005.20
2023-12-28T06:25:16.038Z,1005.26
2023-12-28T06:26:16.065Z,1005.23
2023-12-28T06:27:16.099Z,1005.24
2023-12-28T06:28:16.048Z,1005.31
2023-12-28T06:29:16.110Z,1005.28
2023-12-28T06:30:16.087Z,1005.30
2023-12-28T06:31:16.027Z,1005.25
2023-12-28T06:32:15.984Z,1005.30
2023-12-28T06:33:16.151Z,1005.28
2023-12-28T06:34:16.061Z,1005.28
2023-12-28T06:35:15.981Z,1005.28
2023-12-28T06:36:15.961Z,1005.20
2023-12-28T06:37:15.891Z,1005.16
2023-12-28T06:38:15.883Z,1005.13
2023-12-28T06:39:15.966Z,1005.18
2023-12-28T06:40:15.834Z,1005.19
2023-12-28T06:41:15.857Z,1005.18
2023-12-28T06:42:15.868Z,1005.18
2023-12-28T06:43:15.825Z,1005.15
2023-12-28T06:44:15.832Z,1005.17
2023-12-28T06:45:15.915Z,1005.15
2023-12-28T06:46:15.799Z,1005.22
2023-12-28T06:47:15.785Z,1005.26
2023-12-28T06:48:15.852Z,1005.30
2023-12-28T06:49:15.843Z,1005.28
2023-12-28T06:50:15.795Z,1005.29
2023-12-28T06:51:15.833Z,1005.30
2023-12-28T06:52:15.749Z,1005.32
2023-12-28T06:53:15.707Z,1005.29
2023-12-28T06:54:15.753Z,1005.23
2023-12-28T06:55:15.710Z,1005.21
2023-12-28T06:56:15.698Z,1005.19
2023-12-28T06:57:15.777Z,1005.17
2023-12-28T06:58:17.161Z,1005.15
2023-12-28T06:59:15.679Z,1005.18
2023-12-28T07:00:15.759Z,1005.24
2023-12-28T07:01:15.665Z,1005.24
2023-12-28T07:02:15.648Z,1005.24
2023-12-28T07:03:15.757Z,1005.26
2023-12-28T07:04:15.768Z,1005.34
2023-12-28T07:05:15.667Z,1005.37
2023-12-28T07:06:15.658Z,1005.40
2023-12-28T07:07:15.604Z,1005.46
2023-12-28T07:08:15.605Z,1005.48
2023-12-28T07:09:15.615Z,1005.45
2023-12-28T07:10:15.583Z,1005.49
2023-12-28T07:11:15.565Z,1005.50
2023-12-28T07:12:15.568Z,1005.49
2023-12-28T07:13:15.549Z,1005.51
2023-12-28T07:14:15.519Z,1005.53
2023-12-28T07:15:15.971Z,1005.53
2023-12-28T07:16:15.497Z,1005.59
2023-12-28T07:17:15.506Z,1005.59
2023-12-28T07:18:15.604Z,1005.58
2023-12-28T07:19:15.630Z,1005.58
2023-12-28T07:20:15.489Z,1005.56
2023-12-28T07:21:15.562Z,1005.53
2023-12-28T07:22:15.459Z,1005.57
2023-12-28T07:23:15.430Z,1005.57
2023-12-28T07:24:15.537Z,1005.59
2023-12-28T07:25:15.409Z,1005.60
2023-12-28T07:26:15.410Z,1005.61
2023-12-28T07:27:15.473Z,1005.62
2023-12-28T07:28:15.392Z,1005.63
2023-12-28T07:29:15.415Z,1005.67
2023-12-28T07:30:15.590Z,1005.68
2023-12-28T07:31:15.465Z,1005.74
2023-12-28T07:32:15.435Z,1005.74
2023-12-28T07:33:15.568Z,1005.74
2023-12-28T07:34:15.399Z,1005.73
2023-12-28T07:35:15.348Z,1005.70
2023-12-28T07:36:15.318Z,1005.69
2023-12-28T07:37:15.310Z,1005.66
2023-12-28T07:38:15.359Z,1005.63
2023-12-28T07:39:15.402Z,1005.64
2023-12-28T07:40:15.287Z,1005.70
2023-12-28T07:41:15.256Z,1005.70
2023-12-28T07:42:15.288Z,1005.70
2023-12-28T07:43:15.267Z,1005.71
2023-12-28T07:44:15.239Z,1005.80
2023-12-28T07:45:15.289Z,1005.88
2023-12-28T07:46:15.229Z,1005.89
2023-12-28T07:47:15.237Z,1005.89
2023-12-28T07:48:15.355Z,1005.85
2023-12-28T07:49:15.284Z,1005.83
2023-12-28T07:50:15.196Z,1005.78
2023-12-28T07:51:15.359Z,1005.78
2023-12-28T07:52:15.173Z,1005.84
2023-12-28T07:53:15.166Z,1005.85
2023-12-28T07:54:15.260Z,1005.82
2023-12-28T07:55:15.518Z,1005.76
2023-12-28T07:56:15.161Z,1005.85
2023-12-28T07:57:15.245Z,1005.86
2023-12-28T07:58:15.191Z,1005.84
2023-12-28T07:59:15.143Z,1005.88
2023-12-28T08:00:15.269Z,1005.88
2023-12-28T08:01:15.277Z,1005.84
2023-12-28T08:02:15.606Z,1005.84
2023-12-28T08:03:15.278Z,1005.81
2023-12-28T08:04:15.132Z,1005.85
2023-12-28T08:05:15.117Z,1005.87
2023-12-28T08:06:15.192Z,1005.87
2023-12-28T08:07:15.018Z,1005.87
2023-12-28T08:08:15.079Z,1005.89
2023-12-28T08:09:15.153Z,1005.92
2023-12-28T08:10:15.016Z,1005.90
2023-12-28T08:11:40.171Z,1005.94
2023-12-28T08:12:15.090Z,1005.91
2023-12-28T08:13:15.063Z,1005.92
2023-12-28T08:14:14.980Z,1005.98
2023-12-28T08:15:15.253Z,1005.96
2023-12-28T08:16:15.081Z,1005.98
2023-12-28T08:17:14.965Z,1005.95
2023-12-28T08:18:15.108Z,1005.94
2023-12-28T08:19:15.069Z,1005.99
2023-12-28T08:20:14.968Z,1005.98
2023-12-28T08:21:15.159Z,1006.04
2023-12-28T08:22:14.963Z,1006.02
2023-12-28T08:23:18.201Z,1006.05
2023-12-28T08:24:14.933Z,1006.03
2023-12-28T08:25:14.898Z,1006.02
2023-12-28T08:26:14.914Z,1006.03
2023-12-28T08:27:14.990Z,1006.03
2023-12-28T08:28:14.860Z,1006.05
2023-12-28T08:29:14.859Z,1006.05
2023-12-28T08:30:14.889Z,1006.06
2023-12-28T08:31:14.996Z,1006.03
2023-12-28T08:32:14.880Z,1006.05
2023-12-28T08:33:14.984Z,1006.03
2023-12-28T08:34:14.948Z,1006.01
2023-12-28T08:35:14.820Z,1005.99
2023-12-28T08:36:14.830Z,1006.00
2023-12-28T08:37:14.792Z,1006.03
2023-12-28T08:38:14.772Z,1006.05
2023-12-28T08:39:14.825Z,1006.03
2023-12-28T08:40:14.751Z,1006.08
2023-12-28T08:41:14.755Z,1006.08
2023-12-28T08:42:14.747Z,1006.06
2023-12-28T08:43:14.742Z,1006.07
2023-12-28T08:44:14.752Z,1006.00
2023-12-28T08:45:14.762Z,1006.03
2023-12-28T08:46:14.755Z,1006.04
2023-12-28T08:47:14.691Z,1006.07
2023-12-28T08:48:14.741Z,1006.10
2023-12-28T08:49:14.756Z,1006.10
2023-12-28T08:50:14.671Z,1006.10
2023-12-28T08:51:14.717Z,1006.11
2023-12-28T08:52:14.726Z,1006.12
2023-12-28T08:53:14.635Z,1006.10
2023-12-28T08:54:14.612Z,1006.12
2023-12-28T08:55:14.649Z,1006.13
2023-12-28T08:56:14.744Z,1006.19
2023-12-28T08:57:14.671Z,1006.19
2023-12-28T08:58:14.616Z,1006.23
2023-12-28T08:59:14.589Z,1006.24
2023-12-28T09:00:14.591Z,1006.22
2023-12-28T09:01:14.624Z,1006.28
2023-12-28T09:02:14.539Z,1006.26
2023-12-28T09:03:14.638Z,1006.30
2023-12-28T09:04:14.561Z,1006.31
2023-12-28T09:05:14.538Z,1006.30
2023-12-28T09:06:14.622Z,1006.31
2023-12-28T09:07:14.501Z,1006.31
2023-12-28T09:08:14.511Z,1006.33
2023-12-28T09:09:14.574Z,1006.35
2023-12-28T09:10:14.540Z,1006.38
2023-12-28T09:11:14.469Z,1006.41
2023-12-28T09:12:14.493Z,1006.42
2023-12-28T09:13:14.450Z,1006.41
2023-12-28T09:14:14.480Z,1006.45
2023-12-28T09:15:14.546Z,1006.49
2023-12-28T09:16:14.649Z,1006.53
2023-12-28T09:17:14.414Z,1006.53
2023-12-28T09:18:14.486Z,1006.56
2023-12-28T09:19:14.586Z,1006.55
2023-12-28T09:20:14.417Z,1006.59
2023-12-28T09:21:14.442Z,1006.58
2023-12-28T09:22:14.376Z,1006.58
2023-12-28T09:23:14.366Z,1006.58
2023-12-28T09:24:14.358Z,1006.58
2023-12-28T09:25:14.321Z,1006.63
2023-12-28T09:26:14.356Z,1006.67
2023-12-28T09:27:14.387Z,1006.63
2023-12-28T09:28:14.311Z,1006.64
2023-12-28T09:29:14.288Z,1006.62
2023-12-28T09:30:14.341Z,1006.62
2023-12-28T09:31:14.324Z,1006.67
2023-12-28T09:32:14.229Z,1006.66
2023-12-28T09:33:14.361Z,1006.68
2023-12-28T09:34:14.334Z,1006.65
2023-12-28T09:35:14.228Z,1006.63
2023-12-28T09:36:14.452Z,1006.64
2023-12-28T09:37:14.207Z,1006.65
2023-12-28T09:38:14.190Z,1006.64
2023-12-28T09:39:14.241Z,1006.64
2023-12-28T09:40:14.187Z,1006.67
2023-12-28T09:41:36.170Z,1006.68
2023-12-28T09:42:14.188Z,1006.67
2023-12-28T09:43:14.211Z,1006.66
2023-12-28T09:44:14.198Z,1006.66
2023-12-28T09:45:14.246Z,1006.65
2023-12-28T09:46:14.141Z,1006.59
2023-12-28T09:47:14.112Z,1006.61
2023-12-28T09:48:14.271Z,1006.57
2023-12-28T09:49:14.258Z,1006.54
2023-12-28T09:50:14.142Z,1006.53
2023-12-28T09:51:15.923Z,1006.53
2023-12-28T09:52:14.111Z,1006.54
2023-12-28T09:53:14.072Z,1006.52
2023-12-28T09:54:14.095Z,1006.53
2023-12-28T09:55:14.059Z,1006.54
2023-12-28T09:56:14.084Z,1006.53
2023-12-28T09:57:14.143Z,1006.52
2023-12-28T09:58:14.100Z,1006.52
2023-12-28T09:59:14.058Z,1006.47
2023-12-28T10:00:14.034Z,1006.49
2023-12-28T10:01:14.152Z,1006.52
2023-12-28T10:02:13.997Z,1006.50
2023-12-28T10:03:14.087Z,1006.51
2023-12-28T10:04:14.030Z,1006.48
2023-12-28T10:05:14.020Z,1006.45
2023-12-28T10:06:13.996Z,1006.46
2023-12-28T10:07:13.949Z,1006.47
2023-12-28T10:08:13.958Z,1006.51
2023-12-28T10:09:13.975Z,1006.52
2023-12-28T10:10:13.968Z,1006.52
2023-12-28T10:11:13.923Z,1006.48
2023-12-28T10:12:13.889Z,1006.51
2023-12-28T10:13:13.944Z,1006.45
2023-12-28T10:14:13.909Z,1006.49
2023-12-28T10:15:13.950Z,1006.48
2023-12-28T10:16:13.884Z,1006.49
2023-12-28T10:17:13.865Z,1006.47
2023-12-28T10:18:14.070Z,1006.45
2023-12-28T10:19:13.916Z,1006.44
2023-12-28T10:20:13.861Z,1006.44
2023-12-28T10:21:13.903Z,1006.41
2023-12-28T10:22:13.799Z,1006.42
2023-12-28T10:23:13.819Z,1006.42
2023-12-28T10:24:13.816Z,1006.42
2023-12-28T10:25:13.782Z,1006.40
2023-12-28T10:26:13.913Z,1006.39
2023-12-28T10:27:13.829Z,1006.41
2023-12-28T10:28:13.812Z,1006.40
2023-12-28T10:29:13.720Z,1006.41
2023-12-28T10:30:13.803Z,1006.28
2023-12-28T10:31:14.001Z,1006.32
2023-12-28T10:32:13.709Z,1006.34
2023-12-28T10:33:13.861Z,1006.35
2023-12-28T10:34:13.950Z,1006.39
2023-12-28T10:35:13.773Z,1006.40
2023-12-28T10:36:13.764Z,1006.42
2023-12-28T10:37:13.720Z,1006.45
2023-12-28T10:38:13.696Z,1006.43
2023-12-28T10:39:13.706Z,1006.44
2023-12-28T10:40:13.683Z,1006.45
2023-12-28T10:41:13.666Z,1006.53
2023-12-28T10:42:13.682Z,1006.45
2023-12-28T10:43:13.787Z,1006.56
2023-12-28T10:44:13.637Z,1006.57
2023-12-28T10:45:13.709Z,1006.57
2023-12-28T10:46:13.586Z,1006.55
2023-12-28T10:47:13.598Z,1006.61
2023-12-28T10:48:13.665Z,1006.54
2023-12-28T10:49:13.702Z,1006.59
2023-12-28T10:50:13.686Z,1006.56
2023-12-28T10:51:13.593Z,1006.60
2023-12-28T10:52:13.542Z,1006.55
2023-12-28T10:53:13.533Z,1006.64
2023-12-28T10:54:13.495Z,1006.55
2023-12-28T10:55:14.347Z,1006.61
2023-12-28T10:56:13.518Z,1006.56
2023-12-28T10:57:13.528Z,1006.57
2023-12-28T10:58:13.492Z,1006.56
2023-12-28T10:59:13.486Z,1006.59
2023-12-28T11:00:13.437Z,1006.47
2023-12-28T11:01:13.489Z,1006.54
2023-12-28T11:02:13.416Z,1006.54
2023-12-28T11:03:13.492Z,1006.54
2023-12-28T11:04:13.545Z,1006.52
2023-12-28T11:05:13.550Z,1006.54
2023-12-28T11:06:13.394Z,1006.46
2023-12-28T11:07:13.387Z,1006.44
2023-12-28T11:08:13.408Z,1006.46
2023-12-28T11:09:13.399Z,1006.41
2023-12-28T11:10:13.360Z,1006.38
2023-12-28T11:11:13.382Z,1006.38
2023-12-28T11:12:13.355Z,1006.34
2023-12-28T11:13:13.407Z,1006.45
2023-12-28T11:14:13.323Z,1006.45
2023-12-28T11:15:13.384Z,1006.49
2023-12-28T11:16:13.311Z,1006.50
2023-12-28T11:17:13.294Z,1006.54
2023-12-28T11:18:13.399Z,1006.56
2023-12-28T11:19:13.297Z,1006.52
2023-12-28T11:20:13.267Z,1006.57
2023-12-28T11:21:13.339Z,1006.51
2023-12-28T11:22:13.221Z,1006.49
2023-12-28T11:23:13.226Z,1006.55
2023-12-28T11:24:13.279Z,1006.48
2023-12-28T11:25:13.252Z,1006.42
2023-12-28T11:26:13.241Z,1006.43
2023-12-28T11:27:13.247Z,1006.39
2023-12-28T11:28:13.197Z,1006.42
2023-12-28T11:29:13.194Z,1006.39
2023-12-28T11:30:13.255Z,1006.40
2023-12-28T11:31:13.327Z,1006.41
2023-12-28T11:32:13.161Z,1006.42
2023-12-28T11:33:13.370Z,1006.40
2023-12-28T11:34:14.953Z,1006.42
2023-12-28T11:35:13.115Z,1006.42
2023-12-28T11:36:13.138Z,1006.42
2023-12-28T11:37:13.053Z,1006.40
2023-12-28T11:38:13.106Z,1006.41
2023-12-28T11:39:13.132Z,1006.44
2023-12-28T11:40:13.018Z,1006.44
2023-12-28T11:41:13.041Z,1006.42
2023-12-28T11:42:13.046Z,1006.40
2023-12-28T11:43:13.105Z,1006.32
2023-12-28T11:44:13.026Z,1006.38
2023-12-28T11:45:13.045Z,1006.41
2023-12-28T11:46:12.993Z,1006.33
2023-12-28T11:47:12.965Z,1006.33
2023-12-28T11:48:13.003Z,1006.33
2023-12-28T11:49:13.046Z,1006.31
2023-12-28T11:50:12.950Z,1006.29
2023-12-28T11:51:12.980Z,1006.30
2023-12-28T11:52:12.927Z,1006.31
2023-12-28T11:53:12.922Z,1006.27
2023-12-28T11:54:12.918Z,1006.21
2023-12-28T11:55:12.919Z,1006.28
2023-12-28T11:56:12.883Z,1006.27
2023-12-28T11:57:12.933Z,1006.32
2023-12-28T11:58:15.225Z,1006.28
2023-12-28T11:59:12.858Z,1006.31
2023-12-28T12:00:12.891Z,1006.27
2023-12-28T12:01:12.974Z,1006.25
2023-12-28T12:02:12.866Z,1006.23
2023-12-28T12:03:12.904Z,1006.33
2023-12-28T12:04:12.853Z,1006.30
2023-12-28T12:05:12.787Z,1006.26
2023-12-28T12:06:12.882Z,1006.28